sensor_id;sensor_type;location;lat;lon;timestamp;P1;durP1;ratioP1;P2;durP2;ratioP2
30233;SDS011;17046;52.074;4.748;2023-02-12T00:00:38;20.40;;;12.30;;
30233;SDS011;17046;52.074;4.748;2023-02-12T00:03:05;22.83;;;13.33;;
30233;SDS011;17046;52.074;4.748;2023-02-12T00:05:31;22.10;;;12.63;;
30233;SDS011;17046;52.074;4.748;2023-02-12T00:07:57;19.67;;;12.47;;
30233;SDS011;17046;52.074;4.748;2023-02-12T00:10:22;21.00;;;12.53;;
30233;SDS011;17046;52.074;4.748;2023-02-12T00:12:48;23.27;;;12.70;;
30233;SDS011;17046;52.074;4.748;2023-02-12T00:15:14;20.17;;;12.33;;
30233;SDS011;17046;52.074;4.748;2023-02-12T00:17:40;18.83;;;12.60;;
30233;SDS011;17046;52.074;4.748;2023-02-12T00:20:06;22.40;;;12.80;;
30233;SDS011;17046;52.074;4.748;2023-02-12T00:22:32;19.67;;;12.53;;
30233;SDS011;17046;52.074;4.748;2023-02-12T00:24:58;22.73;;;13.03;;
30233;SDS011;17046;52.074;4.748;2023-02-12T00:27:24;21.40;;;12.10;;
30233;SDS011;17046;52.074;4.748;2023-02-12T00:29:49;20.87;;;12.47;;
30233;SDS011;17046;52.074;4.748;2023-02-12T00:32:15;21.33;;;12.33;;
30233;SDS011;17046;52.074;4.748;2023-02-12T00:34:45;26.23;;;12.37;;
30233;SDS011;17046;52.074;4.748;2023-02-12T00:37:11;24.93;;;13.10;;
30233;SDS011;17046;52.074;4.748;2023-02-12T00:39:37;19.83;;;12.57;;
30233;SDS011;17046;52.074;4.748;2023-02-12T00:42:03;21.33;;;12.53;;
30233;SDS011;17046;52.074;4.748;2023-02-12T00:44:29;21.90;;;12.80;;
30233;SDS011;17046;52.074;4.748;2023-02-12T00:46:54;20.10;;;12.70;;
30233;SDS011;17046;52.074;4.748;2023-02-12T00:49:21;20.20;;;11.70;;
30233;SDS011;17046;52.074;4.748;2023-02-12T00:51:46;19.87;;;12.30;;
30233;SDS011;17046;52.074;4.748;2023-02-12T00:54:12;21.53;;;12.23;;
30233;SDS011;17046;52.074;4.748;2023-02-12T00:56:38;19.23;;;11.97;;
30233;SDS011;17046;52.074;4.748;2023-02-12T00:59:04;19.17;;;11.67;;
30233;SDS011;17046;52.074;4.748;2023-02-12T01:01:30;20.03;;;11.63;;
30233;SDS011;17046;52.074;4.748;2023-02-12T01:03:55;22.50;;;12.33;;
30233;SDS011;17046;52.074;4.748;2023-02-12T01:06:21;17.13;;;11.30;;
30233;SDS011;17046;52.074;4.748;2023-02-12T01:08:49;18.73;;;11.30;;
30233;SDS011;17046;52.074;4.748;2023-02-12T01:11:15;20.90;;;12.67;;
30233;SDS011;17046;52.074;4.748;2023-02-12T01:13:41;19.50;;;12.50;;
30233;SDS011;17046;52.074;4.748;2023-02-12T01:16:08;17.27;;;11.47;;
30233;SDS011;17046;52.074;4.748;2023-02-12T01:18:36;22.97;;;12.40;;
30233;SDS011;17046;52.074;4.748;2023-02-12T01:21:12;20.47;;;12.03;;
30233;SDS011;17046;52.074;4.748;2023-02-12T01:23:43;20.00;;;11.70;;
30233;SDS011;17046;52.074;4.748;2023-02-12T01:26:09;20.53;;;11.73;;
30233;SDS011;17046;52.074;4.748;2023-02-12T01:28:39;22.03;;;11.77;;
30233;SDS011;17046;52.074;4.748;2023-02-12T01:31:10;20.13;;;12.13;;
30233;SDS011;17046;52.074;4.748;2023-02-12T01:33:37;20.57;;;12.73;;
30233;SDS011;17046;52.074;4.748;2023-02-12T01:36:03;21.10;;;12.87;;
30233;SDS011;17046;52.074;4.748;2023-02-12T01:38:29;25.23;;;12.47;;
30233;SDS011;17046;52.074;4.748;2023-02-12T01:41:01;25.10;;;13.60;;
30233;SDS011;17046;52.074;4.748;2023-02-12T01:43:28;21.27;;;12.37;;
30233;SDS011;17046;52.074;4.748;2023-02-12T01:45:54;21.90;;;13.80;;
30233;SDS011;17046;52.074;4.748;2023-02-12T01:48:23;23.70;;;14.40;;
30233;SDS011;17046;52.074;4.748;2023-02-12T01:50:51;28.20;;;16.53;;
30233;SDS011;17046;52.074;4.748;2023-02-12T01:53:18;25.30;;;14.93;;
30233;SDS011;17046;52.074;4.748;2023-02-12T01:55:46;25.40;;;15.57;;
30233;SDS011;17046;52.074;4.748;2023-02-12T01:58:14;22.17;;;14.50;;
30233;SDS011;17046;52.074;4.748;2023-02-12T02:00:40;25.37;;;14.07;;
30233;SDS011;17046;52.074;4.748;2023-02-12T02:03:06;22.33;;;13.07;;
30233;SDS011;17046;52.074;4.748;2023-02-12T02:05:41;22.10;;;13.60;;
30233;SDS011;17046;52.074;4.748;2023-02-12T02:08:45;25.23;;;12.73;;
30233;SDS011;17046;52.074;4.748;2023-02-12T02:11:12;21.53;;;12.93;;
30233;SDS011;17046;52.074;4.748;2023-02-12T02:13:56;22.53;;;13.30;;
30233;SDS011;17046;52.074;4.748;2023-02-12T02:16:42;23.30;;;13.97;;
30233;SDS011;17046;52.074;4.748;2023-02-12T02:27:26;23.00;;;13.07;;
30233;SDS011;17046;52.074;4.748;2023-02-12T02:35:27;25.03;;;13.93;;
30233;SDS011;17046;52.074;4.748;2023-02-12T02:38:05;27.70;;;14.23;;
30233;SDS011;17046;52.074;4.748;2023-02-12T02:43:48;23.60;;;12.57;;
30233;SDS011;17046;52.074;4.748;2023-02-12T02:49:04;25.93;;;13.30;;
30233;SDS011;17046;52.074;4.748;2023-02-12T02:51:34;23.57;;;13.90;;
30233;SDS011;17046;52.074;4.748;2023-02-12T02:56:49;24.57;;;15.07;;
30233;SDS011;17046;52.074;4.748;2023-02-12T02:59:23;24.33;;;13.90;;
30233;SDS011;17046;52.074;4.748;2023-02-12T03:04:30;25.43;;;13.67;;
30233;SDS011;17046;52.074;4.748;2023-02-12T03:07:04;27.77;;;14.20;;
30233;SDS011;17046;52.074;4.748;2023-02-12T03:12:19;24.33;;;13.93;;
30233;SDS011;17046;52.074;4.748;2023-02-12T03:17:38;25.37;;;14.07;;
30233;SDS011;17046;52.074;4.748;2023-02-12T03:20:29;25.33;;;14.63;;
30233;SDS011;17046;52.074;4.748;2023-02-12T03:22:57;23.70;;;14.30;;
30233;SDS011;17046;52.074;4.748;2023-02-12T03:25:32;25.80;;;14.60;;
30233;SDS011;17046;52.074;4.748;2023-02-12T03:28:08;24.00;;;14.23;;
30233;SDS011;17046;52.074;4.748;2023-02-12T03:30:50;24.50;;;13.77;;
30233;SDS011;17046;52.074;4.748;2023-02-12T03:33:41;22.60;;;13.97;;
30233;SDS011;17046;52.074;4.748;2023-02-12T03:36:12;24.53;;;13.57;;
30233;SDS011;17046;52.074;4.748;2023-02-12T03:38:42;25.47;;;14.67;;
30233;SDS011;17046;52.074;4.748;2023-02-12T03:41:13;27.13;;;14.63;;
30233;SDS011;17046;52.074;4.748;2023-02-12T03:43:58;27.80;;;14.60;;
30233;SDS011;17046;52.074;4.748;2023-02-12T03:46:39;28.37;;;14.30;;
30233;SDS011;17046;52.074;4.748;2023-02-12T03:49:23;22.37;;;14.13;;
30233;SDS011;17046;52.074;4.748;2023-02-12T03:51:51;25.37;;;15.00;;
30233;SDS011;17046;52.074;4.748;2023-02-12T03:54:18;25.43;;;15.03;;
30233;SDS011;17046;52.074;4.748;2023-02-12T03:56:46;29.40;;;15.53;;
30233;SDS011;17046;52.074;4.748;2023-02-12T03:59:29;28.57;;;15.07;;
30233;SDS011;17046;52.074;4.748;2023-02-12T04:01:56;23.10;;;14.13;;
30233;SDS011;17046;52.074;4.748;2023-02-12T04:04:23;23.93;;;14.53;;
30233;SDS011;17046;52.074;4.748;2023-02-12T04:06:50;24.33;;;15.20;;
30233;SDS011;17046;52.074;4.748;2023-02-12T04:09:17;21.23;;;13.53;;
30233;SDS011;17046;52.074;4.748;2023-02-12T04:12:07;26.83;;;14.13;;
30233;SDS011;17046;52.074;4.748;2023-02-12T04:17:28;23.77;;;14.37;;
30233;SDS011;17046;52.074;4.748;2023-02-12T04:22:44;22.97;;;13.83;;
30233;SDS011;17046;52.074;4.748;2023-02-12T04:25:45;22.27;;;14.43;;
30233;SDS011;17046;52.074;4.748;2023-02-12T04:31:33;26.00;;;15.13;;
30233;SDS011;17046;52.074;4.748;2023-02-12T04:34:08;23.83;;;14.73;;
30233;SDS011;17046;52.074;4.748;2023-02-12T04:36:48;23.93;;;14.07;;
30233;SDS011;17046;52.074;4.748;2023-02-12T04:39:20;22.37;;;14.20;;
30233;SDS011;17046;52.074;4.748;2023-02-12T04:41:49;20.80;;;14.10;;
30233;SDS011;17046;52.074;4.748;2023-02-12T04:44:17;24.93;;;14.33;;
30233;SDS011;17046;52.074;4.748;2023-02-12T04:46:46;24.47;;;13.33;;
30233;SDS011;17046;52.074;4.748;2023-02-12T04:49:13;24.47;;;13.53;;
30233;SDS011;17046;52.074;4.748;2023-02-12T04:51:40;19.37;;;13.10;;
30233;SDS011;17046;52.074;4.748;2023-02-12T04:54:06;19.43;;;12.83;;
30233;SDS011;17046;52.074;4.748;2023-02-12T04:56:32;20.07;;;13.50;;
30233;SDS011;17046;52.074;4.748;2023-02-12T04:58:57;21.27;;;13.17;;
30233;SDS011;17046;52.074;4.748;2023-02-12T05:01:23;22.27;;;12.80;;
30233;SDS011;17046;52.074;4.748;2023-02-12T05:03:50;21.57;;;13.13;;
30233;SDS011;17046;52.074;4.748;2023-02-12T05:06:16;20.00;;;12.20;;
30233;SDS011;17046;52.074;4.748;2023-02-12T05:08:42;19.33;;;12.10;;
30233;SDS011;17046;52.074;4.748;2023-02-12T05:11:08;19.03;;;11.80;;
30233;SDS011;17046;52.074;4.748;2023-02-12T05:13:35;19.87;;;13.13;;
30233;SDS011;17046;52.074;4.748;2023-02-12T05:16:02;19.43;;;12.37;;
30233;SDS011;17046;52.074;4.748;2023-02-12T05:18:32;19.30;;;12.77;;
30233;SDS011;17046;52.074;4.748;2023-02-12T05:20:59;21.67;;;12.63;;
30233;SDS011;17046;52.074;4.748;2023-02-12T05:23:31;20.53;;;13.17;;
30233;SDS011;17046;52.074;4.748;2023-02-12T05:25:58;21.67;;;14.13;;
30233;SDS011;17046;52.074;4.748;2023-02-12T05:28:25;19.67;;;12.93;;
30233;SDS011;17046;52.074;4.748;2023-02-12T05:30:51;20.57;;;13.47;;
30233;SDS011;17046;52.074;4.748;2023-02-12T05:33:17;20.40;;;13.67;;
30233;SDS011;17046;52.074;4.748;2023-02-12T05:35:43;20.50;;;12.70;;
30233;SDS011;17046;52.074;4.748;2023-02-12T05:38:08;22.03;;;14.63;;
30233;SDS011;17046;52.074;4.748;2023-02-12T05:40:34;20.40;;;13.03;;
30233;SDS011;17046;52.074;4.748;2023-02-12T05:43:00;22.73;;;14.40;;
30233;SDS011;17046;52.074;4.748;2023-02-12T05:45:26;20.50;;;13.27;;
30233;SDS011;17046;52.074;4.748;2023-02-12T05:47:53;24.07;;;14.80;;
30233;SDS011;17046;52.074;4.748;2023-02-12T05:50:19;19.40;;;13.27;;
30233;SDS011;17046;52.074;4.748;2023-02-12T05:52:45;21.03;;;14.07;;
30233;SDS011;17046;52.074;4.748;2023-02-12T05:55:11;20.70;;;13.53;;
30233;SDS011;17046;52.074;4.748;2023-02-12T05:57:37;21.17;;;14.30;;
30233;SDS011;17046;52.074;4.748;2023-02-12T06:00:03;20.20;;;13.73;;
30233;SDS011;17046;52.074;4.748;2023-02-12T06:02:31;19.37;;;13.37;;
30233;SDS011;17046;52.074;4.748;2023-02-12T06:04:57;19.80;;;13.27;;
30233;SDS011;17046;52.074;4.748;2023-02-12T06:07:23;21.80;;;14.70;;
30233;SDS011;17046;52.074;4.748;2023-02-12T06:09:49;21.70;;;14.20;;
30233;SDS011;17046;52.074;4.748;2023-02-12T06:12:14;24.53;;;15.47;;
30233;SDS011;17046;52.074;4.748;2023-02-12T06:14:40;24.87;;;14.23;;
30233;SDS011;17046;52.074;4.748;2023-02-12T06:17:06;25.40;;;14.87;;
30233;SDS011;17046;52.074;4.748;2023-02-12T06:19:31;24.63;;;15.47;;
30233;SDS011;17046;52.074;4.748;2023-02-12T06:21:57;25.10;;;16.27;;
30233;SDS011;17046;52.074;4.748;2023-02-12T06:24:23;23.63;;;15.23;;
30233;SDS011;17046;52.074;4.748;2023-02-12T06:26:49;21.83;;;14.80;;
30233;SDS011;17046;52.074;4.748;2023-02-12T06:29:16;25.73;;;15.83;;
30233;SDS011;17046;52.074;4.748;2023-02-12T06:31:42;25.70;;;15.70;;
30233;SDS011;17046;52.074;4.748;2023-02-12T06:34:09;26.43;;;15.23;;
30233;SDS011;17046;52.074;4.748;2023-02-12T06:36:36;26.53;;;15.40;;
30233;SDS011;17046;52.074;4.748;2023-02-12T06:39:04;24.60;;;15.40;;
30233;SDS011;17046;52.074;4.748;2023-02-12T06:41:30;21.97;;;15.33;;
30233;SDS011;17046;52.074;4.748;2023-02-12T06:43:56;24.43;;;15.87;;
30233;SDS011;17046;52.074;4.748;2023-02-12T06:46:22;27.83;;;16.50;;
30233;SDS011;17046;52.074;4.748;2023-02-12T06:48:51;28.30;;;16.80;;
30233;SDS011;17046;52.074;4.748;2023-02-12T06:51:18;24.93;;;16.00;;
30233;SDS011;17046;52.074;4.748;2023-02-12T06:53:47;24.40;;;16.67;;
30233;SDS011;17046;52.074;4.748;2023-02-12T06:56:14;26.60;;;17.07;;
30233;SDS011;17046;52.074;4.748;2023-02-12T06:58:42;27.23;;;17.00;;
30233;SDS011;17046;52.074;4.748;2023-02-12T07:01:16;26.37;;;16.30;;
30233;SDS011;17046;52.074;4.748;2023-02-12T07:03:46;24.30;;;16.50;;
30233;SDS011;17046;52.074;4.748;2023-02-12T07:06:13;25.70;;;16.40;;
30233;SDS011;17046;52.074;4.748;2023-02-12T07:08:39;30.33;;;16.93;;
30233;SDS011;17046;52.074;4.748;2023-02-12T07:11:04;25.63;;;15.87;;
30233;SDS011;17046;52.074;4.748;2023-02-12T07:13:31;24.17;;;16.93;;
30233;SDS011;17046;52.074;4.748;2023-02-12T07:16:01;23.87;;;16.37;;
30233;SDS011;17046;52.074;4.748;2023-02-12T07:18:28;31.17;;;16.17;;
30233;SDS011;17046;52.074;4.748;2023-02-12T07:20:54;25.87;;;15.90;;
30233;SDS011;17046;52.074;4.748;2023-02-12T07:23:20;24.93;;;16.33;;
30233;SDS011;17046;52.074;4.748;2023-02-12T07:25:53;24.17;;;16.17;;
30233;SDS011;17046;52.074;4.748;2023-02-12T07:28:22;26.23;;;15.90;;
30233;SDS011;17046;52.074;4.748;2023-02-12T07:30:48;24.10;;;15.27;;
30233;SDS011;17046;52.074;4.748;2023-02-12T07:33:14;22.10;;;15.53;;
30233;SDS011;17046;52.074;4.748;2023-02-12T07:35:39;23.73;;;15.27;;
30233;SDS011;17046;52.074;4.748;2023-02-12T07:38:05;25.03;;;15.20;;
30233;SDS011;17046;52.074;4.748;2023-02-12T07:40:31;24.63;;;15.77;;
30233;SDS011;17046;52.074;4.748;2023-02-12T07:42:56;22.93;;;15.13;;
30233;SDS011;17046;52.074;4.748;2023-02-12T07:45:22;23.57;;;16.37;;
30233;SDS011;17046;52.074;4.748;2023-02-12T07:47:47;24.97;;;15.67;;
30233;SDS011;17046;52.074;4.748;2023-02-12T07:50:13;22.80;;;16.23;;
30233;SDS011;17046;52.074;4.748;2023-02-12T07:52:39;24.10;;;15.43;;
30233;SDS011;17046;52.074;4.748;2023-02-12T07:55:05;22.00;;;15.53;;
30233;SDS011;17046;52.074;4.748;2023-02-12T07:57:31;23.30;;;14.90;;
30233;SDS011;17046;52.074;4.748;2023-02-12T07:59:58;23.70;;;16.00;;
30233;SDS011;17046;52.074;4.748;2023-02-12T08:02:24;25.83;;;15.03;;
30233;SDS011;17046;52.074;4.748;2023-02-12T08:04:53;23.23;;;15.80;;
30233;SDS011;17046;52.074;4.748;2023-02-12T08:07:22;26.77;;;15.53;;
30233;SDS011;17046;52.074;4.748;2023-02-12T08:09:49;25.57;;;16.07;;
30233;SDS011;17046;52.074;4.748;2023-02-12T08:12:15;22.27;;;14.30;;
30233;SDS011;17046;52.074;4.748;2023-02-12T08:14:41;24.77;;;16.23;;
30233;SDS011;17046;52.074;4.748;2023-02-12T08:17:07;23.90;;;15.70;;
30233;SDS011;17046;52.074;4.748;2023-02-12T08:19:33;21.20;;;14.43;;
30233;SDS011;17046;52.074;4.748;2023-02-12T08:21:59;22.47;;;14.53;;
30233;SDS011;17046;52.074;4.748;2023-02-12T08:24:27;23.07;;;15.40;;
30233;SDS011;17046;52.074;4.748;2023-02-12T08:26:53;23.53;;;15.43;;
30233;SDS011;17046;52.074;4.748;2023-02-12T08:29:21;22.30;;;14.87;;
30233;SDS011;17046;52.074;4.748;2023-02-12T08:31:49;22.80;;;15.57;;
30233;SDS011;17046;52.074;4.748;2023-02-12T08:34:22;23.93;;;15.03;;
30233;SDS011;17046;52.074;4.748;2023-02-12T08:36:50;20.93;;;15.00;;
30233;SDS011;17046;52.074;4.748;2023-02-12T08:39:19;24.00;;;15.30;;
30233;SDS011;17046;52.074;4.748;2023-02-12T08:41:47;23.17;;;15.00;;
30233;SDS011;17046;52.074;4.748;2023-02-12T08:44:14;23.80;;;14.03;;
30233;SDS011;17046;52.074;4.748;2023-02-12T08:46:44;20.00;;;14.17;;
30233;SDS011;17046;52.074;4.748;2023-02-12T08:49:13;23.00;;;14.97;;
30233;SDS011;17046;52.074;4.748;2023-02-12T08:51:40;23.47;;;14.53;;
30233;SDS011;17046;52.074;4.748;2023-02-12T08:54:11;21.53;;;14.03;;
30233;SDS011;17046;52.074;4.748;2023-02-12T08:56:38;21.77;;;14.90;;
30233;SDS011;17046;52.074;4.748;2023-02-12T08:59:05;23.43;;;15.23;;
30233;SDS011;17046;52.074;4.748;2023-02-12T09:01:32;20.53;;;14.87;;
30233;SDS011;17046;52.074;4.748;2023-02-12T09:04:02;19.90;;;14.23;;
30233;SDS011;17046;52.074;4.748;2023-02-12T09:06:30;24.23;;;14.83;;
30233;SDS011;17046;52.074;4.748;2023-02-12T09:08:57;24.23;;;14.87;;
30233;SDS011;17046;52.074;4.748;2023-02-12T09:11:24;25.53;;;15.00;;
30233;SDS011;17046;52.074;4.748;2023-02-12T09:13:54;21.73;;;14.30;;
30233;SDS011;17046;52.074;4.748;2023-02-12T09:16:22;18.73;;;13.30;;
30233;SDS011;17046;52.074;4.748;2023-02-12T09:18:48;20.83;;;13.83;;
30233;SDS011;17046;52.074;4.748;2023-02-12T09:21:14;20.53;;;13.67;;
30233;SDS011;17046;52.074;4.748;2023-02-12T09:23:41;19.90;;;13.77;;
30233;SDS011;17046;52.074;4.748;2023-02-12T09:26:08;21.90;;;14.47;;
30233;SDS011;17046;52.074;4.748;2023-02-12T09:28:36;22.37;;;14.37;;
30233;SDS011;17046;52.074;4.748;2023-02-12T09:31:06;21.57;;;14.67;;
30233;SDS011;17046;52.074;4.748;2023-02-12T09:33:34;18.47;;;12.90;;
30233;SDS011;17046;52.074;4.748;2023-02-12T09:36:04;21.30;;;14.40;;
30233;SDS011;17046;52.074;4.748;2023-02-12T09:38:31;22.50;;;14.27;;
30233;SDS011;17046;52.074;4.748;2023-02-12T09:46:26;22.57;;;15.27;;
30233;SDS011;17046;52.074;4.748;2023-02-12T09:51:27;17.67;;;12.63;;
30233;SDS011;17046;52.074;4.748;2023-02-12T09:54:02;20.20;;;13.77;;
30233;SDS011;17046;52.074;4.748;2023-02-12T09:56:35;19.13;;;12.93;;
30233;SDS011;17046;52.074;4.748;2023-02-12T09:59:05;18.23;;;12.77;;
30233;SDS011;17046;52.074;4.748;2023-02-12T10:01:32;21.53;;;13.60;;
30233;SDS011;17046;52.074;4.748;2023-02-12T10:03:58;18.77;;;13.60;;
30233;SDS011;17046;52.074;4.748;2023-02-12T10:06:24;18.53;;;13.60;;
30233;SDS011;17046;52.074;4.748;2023-02-12T10:14:30;19.00;;;13.60;;
30233;SDS011;17046;52.074;4.748;2023-02-12T10:27:53;21.27;;;14.43;;
30233;SDS011;17046;52.074;4.748;2023-02-12T10:30:24;21.37;;;14.70;;
30233;SDS011;17046;52.074;4.748;2023-02-12T10:33:02;18.60;;;13.63;;
30233;SDS011;17046;52.074;4.748;2023-02-12T10:35:30;16.33;;;11.57;;
30233;SDS011;17046;52.074;4.748;2023-02-12T10:38:12;16.20;;;11.33;;
30233;SDS011;17046;52.074;4.748;2023-02-12T10:40:43;15.43;;;11.03;;
30233;SDS011;17046;52.074;4.748;2023-02-12T10:43:09;15.07;;;11.00;;
30233;SDS011;17046;52.074;4.748;2023-02-12T10:45:38;13.63;;;11.03;;
30233;SDS011;17046;52.074;4.748;2023-02-12T10:48:06;12.93;;;9.90;;
30233;SDS011;17046;52.074;4.748;2023-02-12T10:53:22;12.40;;;9.27;;
30233;SDS011;17046;52.074;4.748;2023-02-12T10:58:51;11.47;;;8.20;;
30233;SDS011;17046;52.074;4.748;2023-02-12T11:01:21;13.20;;;8.77;;
30233;SDS011;17046;52.074;4.748;2023-02-12T11:03:53;12.87;;;9.03;;
30233;SDS011;17046;52.074;4.748;2023-02-12T11:06:23;12.77;;;9.70;;
30233;SDS011;17046;52.074;4.748;2023-02-12T11:08:53;14.33;;;10.93;;
30233;SDS011;17046;52.074;4.748;2023-02-12T11:11:22;16.47;;;10.63;;
30233;SDS011;17046;52.074;4.748;2023-02-12T11:19:23;15.40;;;10.67;;
30233;SDS011;17046;52.074;4.748;2023-02-12T11:21:51;13.87;;;10.27;;
30233;SDS011;17046;52.074;4.748;2023-02-12T11:24:43;13.77;;;10.03;;
30233;SDS011;17046;52.074;4.748;2023-02-12T11:27:11;18.00;;;13.57;;
30233;SDS011;17046;52.074;4.748;2023-02-12T11:29:41;15.30;;;11.20;;
30233;SDS011;17046;52.074;4.748;2023-02-12T11:32:10;13.03;;;10.33;;
30233;SDS011;17046;52.074;4.748;2023-02-12T11:34:40;13.57;;;9.37;;
30233;SDS011;17046;52.074;4.748;2023-02-12T11:37:13;14.70;;;10.40;;
30233;SDS011;17046;52.074;4.748;2023-02-12T11:39:44;12.87;;;9.50;;
30233;SDS011;17046;52.074;4.748;2023-02-12T11:42:18;14.77;;;9.83;;
30233;SDS011;17046;52.074;4.748;2023-02-12T11:44:51;14.93;;;10.50;;
30233;SDS011;17046;52.074;4.748;2023-02-12T11:47:24;12.23;;;10.10;;
30233;SDS011;17046;52.074;4.748;2023-02-12T11:49:53;14.87;;;9.73;;
30233;SDS011;17046;52.074;4.748;2023-02-12T11:52:26;11.87;;;9.47;;
30233;SDS011;17046;52.074;4.748;2023-02-12T11:54:56;13.57;;;10.53;;
30233;SDS011;17046;52.074;4.748;2023-02-12T12:02:41;13.40;;;10.53;;
30233;SDS011;17046;52.074;4.748;2023-02-12T12:05:15;15.40;;;11.40;;
30233;SDS011;17046;52.074;4.748;2023-02-12T12:08:05;14.67;;;11.03;;
30233;SDS011;17046;52.074;4.748;2023-02-12T12:10:39;17.13;;;11.17;;
30233;SDS011;17046;52.074;4.748;2023-02-12T12:13:17;15.00;;;10.90;;
30233;SDS011;17046;52.074;4.748;2023-02-12T12:15:49;13.17;;;9.80;;
30233;SDS011;17046;52.074;4.748;2023-02-12T12:24:17;13.50;;;10.33;;
30233;SDS011;17046;52.074;4.748;2023-02-12T12:26:49;17.10;;;11.00;;
30233;SDS011;17046;52.074;4.748;2023-02-12T12:29:40;15.53;;;11.20;;
30233;SDS011;17046;52.074;4.748;2023-02-12T12:32:15;14.93;;;10.67;;
30233;SDS011;17046;52.074;4.748;2023-02-12T12:34:43;15.67;;;10.93;;
30233;SDS011;17046;52.074;4.748;2023-02-12T12:37:21;12.67;;;9.30;;
30233;SDS011;17046;52.074;4.748;2023-02-12T12:40:26;16.80;;;10.17;;
30233;SDS011;17046;52.074;4.748;2023-02-12T12:48:29;15.30;;;11.17;;
30233;SDS011;17046;52.074;4.748;2023-02-12T13:15:51;19.53;;;13.27;;
30233;SDS011;17046;52.074;4.748;2023-02-12T13:18:20;18.53;;;13.17;;
30233;SDS011;17046;52.074;4.748;2023-02-12T13:20:55;20.30;;;13.60;;
30233;SDS011;17046;52.074;4.748;2023-02-12T13:23:56;19.60;;;13.17;;
30233;SDS011;17046;52.074;4.748;2023-02-12T13:26:41;19.67;;;13.10;;
30233;SDS011;17046;52.074;4.748;2023-02-12T13:31:51;21.17;;;13.33;;
30233;SDS011;17046;52.074;4.748;2023-02-12T13:34:26;18.47;;;13.63;;
30233;SDS011;17046;52.074;4.748;2023-02-12T13:36:54;20.30;;;13.83;;
30233;SDS011;17046;52.074;4.748;2023-02-12T13:39:26;22.13;;;13.70;;
30233;SDS011;17046;52.074;4.748;2023-02-12T13:41:59;19.70;;;13.40;;
30233;SDS011;17046;52.074;4.748;2023-02-12T13:44:35;21.73;;;14.10;;
30233;SDS011;17046;52.074;4.748;2023-02-12T14:03:26;19.47;;;12.93;;
30233;SDS011;17046;52.074;4.748;2023-02-12T14:06:13;19.13;;;12.87;;
30233;SDS011;17046;52.074;4.748;2023-02-12T14:08:42;21.23;;;13.43;;
30233;SDS011;17046;52.074;4.748;2023-02-12T14:11:12;21.17;;;13.10;;
30233;SDS011;17046;52.074;4.748;2023-02-12T14:13:51;20.07;;;13.43;;
30233;SDS011;17046;52.074;4.748;2023-02-12T14:21:57;17.20;;;11.43;;
30233;SDS011;17046;52.074;4.748;2023-02-12T14:27:02;16.23;;;10.70;;
30233;SDS011;17046;52.074;4.748;2023-02-12T14:29:29;16.93;;;10.93;;
30233;SDS011;17046;52.074;4.748;2023-02-12T14:31:55;16.70;;;10.57;;
30233;SDS011;17046;52.074;4.748;2023-02-12T14:36:47;14.33;;;8.80;;
30233;SDS011;17046;52.074;4.748;2023-02-12T14:39:32;15.43;;;8.87;;
30233;SDS011;17046;52.074;4.748;2023-02-12T14:47:03;15.53;;;9.50;;
30233;SDS011;17046;52.074;4.748;2023-02-12T14:49:51;18.50;;;9.90;;
30233;SDS011;17046;52.074;4.748;2023-02-12T14:52:24;13.40;;;8.80;;
30233;SDS011;17046;52.074;4.748;2023-02-12T14:57:27;15.97;;;9.43;;
30233;SDS011;17046;52.074;4.748;2023-02-12T15:02:41;15.07;;;9.70;;
30233;SDS011;17046;52.074;4.748;2023-02-12T15:05:13;16.97;;;9.70;;
30233;SDS011;17046;52.074;4.748;2023-02-12T15:08:01;15.70;;;10.57;;
30233;SDS011;17046;52.074;4.748;2023-02-12T15:10:47;14.67;;;9.47;;
30233;SDS011;17046;52.074;4.748;2023-02-12T15:18:44;16.90;;;10.20;;
30233;SDS011;17046;52.074;4.748;2023-02-12T15:23:45;16.20;;;10.17;;
30233;SDS011;17046;52.074;4.748;2023-02-12T15:26:15;17.33;;;11.20;;
30233;SDS011;17046;52.074;4.748;2023-02-12T15:28:47;18.13;;;10.67;;
30233;SDS011;17046;52.074;4.748;2023-02-12T15:31:16;17.63;;;11.13;;
30233;SDS011;17046;52.074;4.748;2023-02-12T15:33:45;19.20;;;11.83;;
30233;SDS011;17046;52.074;4.748;2023-02-12T15:36:15;20.03;;;12.00;;
30233;SDS011;17046;52.074;4.748;2023-02-12T15:38:43;17.60;;;11.10;;
30233;SDS011;17046;52.074;4.748;2023-02-12T15:44:20;21.10;;;12.33;;
30233;SDS011;17046;52.074;4.748;2023-02-12T15:46:56;21.07;;;12.80;;
30233;SDS011;17046;52.074;4.748;2023-02-12T15:49:36;23.67;;;13.40;;
30233;SDS011;17046;52.074;4.748;2023-02-12T15:52:05;23.50;;;13.33;;
30233;SDS011;17046;52.074;4.748;2023-02-12T15:54:32;20.83;;;13.77;;
30233;SDS011;17046;52.074;4.748;2023-02-12T15:56:57;23.90;;;13.67;;
30233;SDS011;17046;52.074;4.748;2023-02-12T15:59:24;26.17;;;14.47;;
30233;SDS011;17046;52.074;4.748;2023-02-12T16:01:53;27.87;;;16.47;;
30233;SDS011;17046;52.074;4.748;2023-02-12T16:04:25;29.40;;;16.17;;
30233;SDS011;17046;52.074;4.748;2023-02-12T16:06:57;27.43;;;16.23;;
30233;SDS011;17046;52.074;4.748;2023-02-12T16:09:26;25.07;;;15.03;;
30233;SDS011;17046;52.074;4.748;2023-02-12T16:11:55;24.83;;;14.90;;
30233;SDS011;17046;52.074;4.748;2023-02-12T16:14:27;27.17;;;16.10;;
30233;SDS011;17046;52.074;4.748;2023-02-12T16:22:45;28.30;;;15.13;;
30233;SDS011;17046;52.074;4.748;2023-02-12T16:25:17;25.87;;;14.87;;
30233;SDS011;17046;52.074;4.748;2023-02-12T16:27:59;24.83;;;13.87;;
30233;SDS011;17046;52.074;4.748;2023-02-12T16:30:28;23.53;;;14.50;;
30233;SDS011;17046;52.074;4.748;2023-02-12T16:32:58;25.30;;;14.40;;
30233;SDS011;17046;52.074;4.748;2023-02-12T16:35:26;27.67;;;15.50;;
30233;SDS011;17046;52.074;4.748;2023-02-12T16:38:43;25.63;;;14.83;;
30233;SDS011;17046;52.074;4.748;2023-02-12T16:43:42;27.73;;;15.63;;
30233;SDS011;17046;52.074;4.748;2023-02-12T16:46:08;30.60;;;15.80;;
30233;SDS011;17046;52.074;4.748;2023-02-12T16:48:39;25.17;;;15.10;;
30233;SDS011;17046;52.074;4.748;2023-02-12T16:51:19;27.40;;;15.07;;
30233;SDS011;17046;52.074;4.748;2023-02-12T16:53:48;27.93;;;15.97;;
30233;SDS011;17046;52.074;4.748;2023-02-12T16:56:18;29.10;;;16.83;;
30233;SDS011;17046;52.074;4.748;2023-02-12T16:58:45;29.07;;;16.60;;
30233;SDS011;17046;52.074;4.748;2023-02-12T17:01:18;27.53;;;15.97;;
30233;SDS011;17046;52.074;4.748;2023-02-12T17:03:46;26.13;;;15.20;;
30233;SDS011;17046;52.074;4.748;2023-02-12T17:06:15;27.90;;;16.33;;
30233;SDS011;17046;52.074;4.748;2023-02-12T17:08:44;31.57;;;17.07;;
30233;SDS011;17046;52.074;4.748;2023-02-12T17:11:09;30.37;;;17.77;;
30233;SDS011;17046;52.074;4.748;2023-02-12T17:13:35;31.30;;;17.60;;
30233;SDS011;17046;52.074;4.748;2023-02-12T17:16:01;29.90;;;17.50;;
30233;SDS011;17046;52.074;4.748;2023-02-12T17:18:27;32.50;;;17.03;;
30233;SDS011;17046;52.074;4.748;2023-02-12T17:20:58;30.97;;;17.37;;
30233;SDS011;17046;52.074;4.748;2023-02-12T17:23:25;31.07;;;17.83;;
30233;SDS011;17046;52.074;4.748;2023-02-12T17:25:52;28.20;;;16.37;;
30233;SDS011;17046;52.074;4.748;2023-02-12T17:28:17;29.07;;;16.93;;
30233;SDS011;17046;52.074;4.748;2023-02-12T17:30:43;30.03;;;16.60;;
30233;SDS011;17046;52.074;4.748;2023-02-12T17:33:09;30.20;;;17.10;;
30233;SDS011;17046;52.074;4.748;2023-02-12T17:35:38;35.30;;;20.63;;